Time;durP1;ratioP1;P1;durP2;ratioP2;P2;SDS_P1;SDS_P2;PMS_P1;PMS_P2;Temp;Humidity;BMP_temperature;BMP_pressure;BME280_temperature;BME280_humidity;BME280_pressure;Samples;Min_cycle;Max_cycle;Signal;HPM_P1;HPM_P2
2021/09/18 00:00:53;;;;;;;13.18;7.93;;;;;;;;;;143733;612;46012;-55
2021/09/18 00:03:21;;;;;;;15.32;8.73;;;;;;;;;;143731;564;45020;-55
2021/09/18 00:05:48;;;;;;;17.27;7.70;;;;;;;;;;143733;599;46020;-55
2021/09/18 00:08:15;;;;;;;17.05;8.02;;;;;;;;;;143729;597;46020;-55
2021/09/18 00:10:42;;;;;;;22.75;8.93;;;;;;;;;;143730;589;46012;-55
2021/09/18 00:13:09;;;;;;;16.83;7.45;;;;;;;;;;143731;619;45021;-55
2021/09/18 00:15:36;;;;;;;17.12;8.07;;;;;;;;;;143732;570;46031;-55
2021/09/18 00:18:03;;;;;;;19.20;7.85;;;;;;;;;;143728;624;46020;-55
2021/09/18 00:20:31;;;;;;;14.75;7.57;;;;;;;;;;143730;591;46013;-55
2021/09/18 00:22:58;;;;;;;18.95;7.70;;;;;;;;;;143731;574;45021;-55
2021/09/18 00:25:26;;;;;;;19.92;8.43;;;;;;;;;;143734;611;45030;-55
2021/09/18 00:27:53;;;;;;;18.85;7.95;;;;;;;;;;143730;594;46021;-55
2021/09/18 00:30:20;;;;;;;17.73;8.40;;;;;;;;;;143728;579;46012;-55
2021/09/18 00:32:47;;;;;;;14.98;7.28;;;;;;;;;;143730;638;45020;-56
2021/09/18 00:35:14;;;;;;;13.35;7.43;;;;;;;;;;143731;574;46010;-55
2021/09/18 00:37:41;;;;;;;21.55;7.45;;;;;;;;;;143728;565;46021;-55
2021/09/18 00:40:09;;;;;;;12.80;7.53;;;;;;;;;;143730;641;46012;-55
2021/09/18 00:42:36;;;;;;;14.60;7.50;;;;;;;;;;143731;565;45020;-55
2021/09/18 00:45:04;;;;;;;18.65;8.35;;;;;;;;;;143733;615;46021;-55
2021/09/18 00:47:32;;;;;;;13.23;8.05;;;;;;;;;;143729;584;46020;-55
2021/09/18 00:49:59;;;;;;;19.12;8.02;;;;;;;;;;143729;574;46012;-55
2021/09/18 00:52:26;;;;;;;19.05;7.97;;;;;;;;;;143732;625;45021;-55
2021/09/18 00:54:53;;;;;;;13.05;7.60;;;;;;;;;;143734;579;46020;-55
2021/09/18 00:57:20;;;;;;;17.23;8.02;;;;;;;;;;143728;608;46021;-55
2021/09/18 00:59:47;;;;;;;13.75;7.78;;;;;;;;;;143728;597;46919;-55
2021/09/18 01:02:14;;;;;;;12.88;7.85;;;;;;;;;;143732;596;45020;-55
2021/09/18 01:04:41;;;;;;;19.30;7.82;;;;;;;;;;143734;564;45021;-55
2021/09/18 01:07:09;;;;;;;16.10;7.90;;;;;;;;;;143727;609;46021;-55
2021/09/18 01:09:36;;;;;;;18.23;8.40;;;;;;;;;;143730;591;46012;-55
2021/09/18 01:12:06;;;;;;;20.08;7.93;;;;;;;;;;143731;584;45021;-55
2021/09/18 01:14:34;;;;;;;14.30;7.95;;;;;;;;;;143734;579;45023;-55
2021/09/18 01:17:01;;;;;;;20.90;9.23;;;;;;;;;;143728;570;46020;-55
2021/09/18 01:19:28;;;;;;;14.40;8.65;;;;;;;;;;143730;569;46013;-55
2021/09/18 01:21:56;;;;;;;16.35;8.68;;;;;;;;;;143730;613;45021;-55
2021/09/18 01:24:23;;;;;;;15.85;9.15;;;;;;;;;;143734;571;45020;-55
2021/09/18 01:26:50;;;;;;;18.90;8.18;;;;;;;;;;143727;615;46022;-55
2021/09/18 01:29:17;;;;;;;21.37;7.62;;;;;;;;;;143729;580;46021;-55
2021/09/18 01:31:46;;;;;;;20.58;8.18;;;;;;;;;;143731;622;46012;-55
2021/09/18 01:34:18;;;;;;;20.30;7.78;;;;;;;;;;143734;640;45020;-55
2021/09/18 01:36:46;;;;;;;13.70;8.05;;;;;;;;;;143731;572;46020;-55
2021/09/18 01:39:15;;;;;;;17.27;8.93;;;;;;;;;;143729;585;46012;-55
2021/09/18 01:41:44;;;;;;;19.52;8.30;;;;;;;;;;143732;574;45020;-55
2021/09/18 01:44:13;;;;;;;20.40;8.20;;;;;;;;;;143733;576;46025;-55
2021/09/18 01:46:40;;;;;;;22.87;8.63;;;;;;;;;;143728;569;46020;-55
2021/09/18 01:49:17;;;;;;;17.65;8.50;;;;;;;;;;143731;629;46918;-55
2021/09/18 01:51:55;;;;;;;10.93;7.50;;;;;;;;;;143731;567;45021;-55
2021/09/18 01:54:22;;;;;;;17.45;7.95;;;;;;;;;;143733;584;46020;-55
2021/09/18 01:56:49;;;;;;;21.35;9.23;;;;;;;;;;143733;597;46020;-55
2021/09/18 01:59:17;;;;;;;16.42;8.48;;;;;;;;;;143729;595;46012;-55
2021/09/18 02:01:44;;;;;;;14.63;7.57;;;;;;;;;;143732;588;45020;-55
2021/09/18 02:04:11;;;;;;;12.30;7.00;;;;;;;;;;143733;631;46020;-55
2021/09/18 02:06:38;;;;;;;15.75;8.30;;;;;;;;;;143730;607;46021;-55
2021/09/18 02:09:06;;;;;;;16.35;8.00;;;;;;;;;;143730;585;46012;-55
2021/09/18 02:11:33;;;;;;;17.00;8.48;;;;;;;;;;143731;567;45020;-55
2021/09/18 02:14:00;;;;;;;16.08;7.80;;;;;;;;;;143733;564;46021;-55
2021/09/18 02:16:27;;;;;;;16.67;7.57;;;;;;;;;;143728;640;46020;-55
2021/09/18 02:18:54;;;;;;;13.27;7.60;;;;;;;;;;143727;606;46012;-55
2021/09/18 02:21:22;;;;;;;19.83;7.87;;;;;;;;;;143731;615;45021;-55
2021/09/18 02:23:49;;;;;;;17.10;8.35;;;;;;;;;;143732;576;46020;-55
2021/09/18 02:26:16;;;;;;;12.77;7.37;;;;;;;;;;143729;566;46020;-55
2021/09/18 02:28:43;;;;;;;13.85;8.00;;;;;;;;;;143730;603;46012;-55
2021/09/18 02:31:10;;;;;;;13.43;7.50;;;;;;;;;;143731;715;45020;-55
2021/09/18 02:33:37;;;;;;;18.20;8.05;;;;;;;;;;143732;604;46020;-55
2021/09/18 02:36:04;;;;;;;18.35;7.95;;;;;;;;;;143729;596;46021;-55
2021/09/18 02:38:31;;;;;;;17.00;7.35;;;;;;;;;;143729;581;46012;-55
2021/09/18 02:40:58;;;;;;;13.50;7.75;;;;;;;;;;143731;571;45020;-55
2021/09/18 02:43:25;;;;;;;18.77;8.07;;;;;;;;;;143734;607;46021;-55
2021/09/18 02:45:52;;;;;;;13.70;7.93;;;;;;;;;;143728;606;47020;-55
2021/09/18 02:48:19;;;;;;;16.37;8.05;;;;;;;;;;143729;583;46012;-55
2021/09/18 02:50:47;;;;;;;18.00;8.68;;;;;;;;;;143731;578;45021;-55
2021/09/18 02:53:14;;;;;;;12.80;8.63;;;;;;;;;;143733;626;46010;-55
2021/09/18 02:55:41;;;;;;;14.20;7.85;;;;;;;;;;143728;616;46020;-55
2021/09/18 02:58:08;;;;;;;17.77;9.00;;;;;;;;;;143730;577;46012;-55
2021/09/18 03:00:36;;;;;;;25.27;9.05;;;;;;;;;;143731;576;45020;-55
2021/09/18 03:03:03;;;;;;;17.33;7.85;;;;;;;;;;143733;577;46020;-55
2021/09/18 03:05:30;;;;;;;12.10;7.20;;;;;;;;;;143730;581;46021;-55
2021/09/18 03:07:57;;;;;;;14.75;8.40;;;;;;;;;;143732;603;46012;-55
2021/09/18 03:10:24;;;;;;;19.10;7.75;;;;;;;;;;143732;594;45020;-55
2021/09/18 03:12:50;;;;;;;15.18;8.18;;;;;;;;;;143734;600;45021;-55
2021/09/18 03:15:17;;;;;;;17.58;8.15;;;;;;;;;;143729;593;46020;-56
2021/09/18 03:17:44;;;;;;;16.02;7.65;;;;;;;;;;143729;638;46012;-55
2021/09/18 03:20:12;;;;;;;21.52;8.75;;;;;;;;;;143730;597;45021;-55
2021/09/18 03:22:39;;;;;;;13.77;7.78;;;;;;;;;;143733;637;45025;-55
2021/09/18 03:25:07;;;;;;;20.55;9.63;;;;;;;;;;143725;608;47020;-55
2021/09/18 03:27:34;;;;;;;17.15;9.45;;;;;;;;;;143726;654;46013;-55
2021/09/18 03:30:01;;;;;;;16.23;8.52;;;;;;;;;;143730;585;45020;-55
2021/09/18 03:32:28;;;;;;;15.52;8.73;;;;;;;;;;143732;603;45020;-55
2021/09/18 03:34:56;;;;;;;22.23;9.77;;;;;;;;;;143726;627;46022;-55
2021/09/18 03:37:23;;;;;;;17.87;9.35;;;;;;;;;;143727;580;46012;-55
2021/09/18 03:39:50;;;;;;;29.63;8.48;;;;;;;;;;143730;591;45020;-55
2021/09/18 03:42:17;;;;;;;22.15;8.77;;;;;;;;;;143732;570;45021;-55
2021/09/18 03:44:45;;;;;;;23.98;9.05;;;;;;;;;;143724;612;47020;-55
2021/09/18 03:47:12;;;;;;;17.08;8.95;;;;;;;;;;143726;564;46012;-55
2021/09/18 03:49:39;;;;;;;20.83;8.95;;;;;;;;;;143729;592;45021;-55
2021/09/18 03:52:06;;;;;;;21.65;8.32;;;;;;;;;;143732;592;45024;-55
2021/09/18 03:54:33;;;;;;;20.88;9.98;;;;;;;;;;143726;630;46020;-55
2021/09/18 03:57:00;;;;;;;19.02;9.05;;;;;;;;;;143728;569;46012;-55
2021/09/18 03:59:27;;;;;;;22.13;8.95;;;;;;;;;;143729;567;45021;-55
2021/09/18 04:01:54;;;;;;;27.13;9.15;;;;;;;;;;143728;564;46010;-56
2021/09/18 04:04:21;;;;;;;15.65;8.48;;;;;;;;;;143725;581;46021;-56
2021/09/18 04:06:48;;;;;;;20.83;9.75;;;;;;;;;;143728;606;46012;-55
2021/09/18 04:09:15;;;;;;;22.23;9.30;;;;;;;;;;143730;576;45020;-55
2021/09/18 04:11:42;;;;;;;26.30;10.93;;;;;;;;;;143730;607;46020;-55
2021/09/18 04:14:09;;;;;;;20.80;10.35;;;;;;;;;;143727;581;46020;-55
2021/09/18 04:16:36;;;;;;;31.65;10.48;;;;;;;;;;143729;580;46012;-54
2021/09/18 04:19:03;;;;;;;29.70;11.25;;;;;;;;;;143729;570;45021;-55
2021/09/18 04:21:30;;;;;;;19.75;9.93;;;;;;;;;;143730;569;46010;-55
2021/09/18 04:23:57;;;;;;;28.75;10.80;;;;;;;;;;143724;585;47020;-55
2021/09/18 04:26:24;;;;;;;14.43;9.15;;;;;;;;;;143729;570;46013;-55
2021/09/18 04:28:52;;;;;;;17.85;9.13;;;;;;;;;;143727;581;46018;-55
2021/09/18 04:31:18;;;;;;;23.12;10.73;;;;;;;;;;143731;566;46020;-55
2021/09/18 04:33:46;;;;;;;24.17;10.55;;;;;;;;;;143728;611;46021;-55
2021/09/18 04:36:13;;;;;;;16.23;8.40;;;;;;;;;;143727;581;46012;-55
2021/09/18 04:38:40;;;;;;;25.08;9.50;;;;;;;;;;143728;564;45020;-55
2021/09/18 04:41:07;;;;;;;22.37;9.32;;;;;;;;;;143731;576;46020;-55
2021/09/18 04:43:34;;;;;;;20.52;9.60;;;;;;;;;;143728;581;46020;-55
2021/09/18 04:46:01;;;;;;;17.08;9.15;;;;;;;;;;143731;636;46012;-55
2021/09/18 04:48:28;;;;;;;25.37;9.13;;;;;;;;;;143730;609;45021;-54
2021/09/18 04:50:56;;;;;;;39.25;11.48;;;;;;;;;;143731;581;46021;-55
2021/09/18 04:53:26;;;;;;;20.83;9.38;;;;;;;;;;143724;637;46020;-56
2021/09/18 04:55:53;;;;;;;18.02;9.65;;;;;;;;;;143727;581;46012;-55
2021/09/18 04:58:20;;;;;;;30.17;11.73;;;;;;;;;;143728;576;45021;-54
2021/09/18 05:00:47;;;;;;;24.50;10.48;;;;;;;;;;143731;605;46020;-55
2021/09/18 05:03:14;;;;;;;19.23;10.30;;;;;;;;;;143728;567;46021;-55
2021/09/18 05:05:41;;;;;;;39.67;14.60;;;;;;;;;;143728;583;46012;-54
2021/09/18 05:08:08;;;;;;;41.92;15.80;;;;;;;;;;143730;594;45020;-55
2021/09/18 05:10:35;;;;;;;43.10;13.75;;;;;;;;;;143731;566;46020;-55
2021/09/18 05:13:02;;;;;;;38.78;14.63;;;;;;;;;;143722;564;47023;-54
2021/09/18 05:15:30;;;;;;;33.65;13.45;;;;;;;;;;143725;589;46012;-54
2021/09/18 05:17:57;;;;;;;30.55;13.15;;;;;;;;;;143730;576;45033;-55
2021/09/18 05:20:24;;;;;;;37.30;14.20;;;;;;;;;;143731;581;46021;-55
2021/09/18 05:22:51;;;;;;;35.42;12.55;;;;;;;;;;143727;579;46020;-54
2021/09/18 05:25:18;;;;;;;30.30;13.57;;;;;;;;;;143728;570;46013;-54
2021/09/18 05:27:45;;;;;;;32.97;13.93;;;;;;;;;;143727;587;45021;-54
2021/09/18 05:30:13;;;;;;;25.80;12.65;;;;;;;;;;143732;621;45026;-54
2021/09/18 05:32:40;;;;;;;24.37;11.27;;;;;;;;;;143727;590;46020;-54
2021/09/18 05:35:07;;;;;;;33.33;11.75;;;;;;;;;;143728;634;46012;-54
2021/09/18 05:37:35;;;;;;;40.55;14.27;;;;;;;;;;143729;564;45020;-54
2021/09/18 05:40:02;;;;;;;33.50;13.38;;;;;;;;;;143731;579;46020;-54
2021/09/18 05:42:29;;;;;;;34.53;14.00;;;;;;;;;;143728;585;46021;-54
2021/09/18 05:44:56;;;;;;;61.25;17.20;;;;;;;;;;143727;589;46012;-54
2021/09/18 05:47:23;;;;;;;27.37;12.90;;;;;;;;;;143728;580;45020;-54
2021/09/18 05:49:50;;;;;;;30.73;13.62;;;;;;;;;;143732;564;45021;-54
2021/09/18 05:52:17;;;;;;;26.08;11.60;;;;;;;;;;143726;592;46028;-54
2021/09/18 05:54:44;;;;;;;32.88;11.15;;;;;;;;;;143728;564;46012;-53
2021/09/18 05:57:11;;;;;;;28.27;12.13;;;;;;;;;;143729;583;45021;-53
2021/09/18 05:59:39;;;;;;;34.85;11.88;;;;;;;;;;143732;657;45021;-54
2021/09/18 06:02:06;;;;;;;39.72;13.32;;;;;;;;;;143726;653;46020;-54
2021/09/18 06:04:33;;;;;;;36.95;13.60;;;;;;;;;;143731;611;46012;-54
2021/09/18 06:07:00;;;;;;;35.08;13.13;;;;;;;;;;143728;622;45021;-53
2021/09/18 06:09:27;;;;;;;25.95;12.15;;;;;;;;;;143732;576;45020;-53
2021/09/18 06:11:54;;;;;;;26.87;10.85;;;;;;;;;;143724;576;47021;-53
2021/09/18 06:14:21;;;;;;;34.45;10.65;;;;;;;;;;143728;597;46012;-52
2021/09/18 06:16:48;;;;;;;29.73;10.60;;;;;;;;;;143729;594;45020;-52
2021/09/18 06:19:18;;;;;;;27.58;9.95;;;;;;;;;;143732;699;45021;-52
2021/09/18 06:21:46;;;;;;;34.70;9.82;;;;;;;;;;143728;581;46020;-52
2021/09/18 06:24:14;;;;;;;33.10;10.38;;;;;;;;;;143727;578;46012;-52
2021/09/18 06:26:41;;;;;;;32.67;10.30;;;;;;;;;;143728;569;46013;-53
2021/09/18 06:29:09;;;;;;;30.27;9.93;;;;;;;;;;143729;597;46020;-52
2021/09/18 06:31:36;;;;;;;43.78;9.80;;;;;;;;;;143728;566;46020;-53
2021/09/18 06:34:03;;;;;;;29.80;10.23;;;;;;;;;;143728;601;46013;-53
2021/09/18 06:36:30;;;;;;;25.88;8.50;;;;;;;;;;143727;664;46020;-54
2021/09/18 06:38:57;;;;;;;28.73;8.63;;;;;;;;;;143730;622;46020;-53
2021/09/18 06:41:25;;;;;;;25.90;7.78;;;;;;;;;;143728;583;46021;-53
2021/09/18 06:43:52;;;;;;;18.20;6.62;;;;;;;;;;143727;603;46012;-54
2021/09/18 06:46:19;;;;;;;19.23;6.65;;;;;;;;;;143729;604;45020;-53
2021/09/18 06:48:46;;;;;;;13.85;7.55;;;;;;;;;;143732;565;45028;-54
2021/09/18 06:51:15;;;;;;;14.80;6.70;;;;;;;;;;143726;576;46020;-54
2021/09/18 06:53:42;;;;;;;16.87;6.75;;;;;;;;;;143728;569;46012;-54
2021/09/18 06:56:09;;;;;;;18.70;6.82;;;;;;;;;;143727;566;46021;-53
2021/09/18 06:58:36;;;;;;;19.85;6.93;;;;;;;;;;143731;616;46020;-53
2021/09/18 07:01:03;;;;;;;24.20;7.32;;;;;;;;;;143726;581;46020;-53
2021/09/18 07:03:30;;;;;;;14.80;5.87;;;;;;;;;;143726;824;46021;-53
2021/09/18 07:05:57;;;;;;;12.50;5.93;;;;;;;;;;143728;615;45021;-54
2021/09/18 07:08:24;;;;;;;18.02;6.37;;;;;;;;;;143732;598;45026;-53
2021/09/18 07:10:51;;;;;;;19.90;6.47;;;;;;;;;;143726;566;46021;-54
2021/09/18 07:13:18;;;;;;;25.62;7.00;;;;;;;;;;143728;628;46012;-54
2021/09/18 07:15:45;;;;;;;15.02;6.22;;;;;;;;;;143729;587;45025;-54
2021/09/18 07:18:12;;;;;;;17.45;6.50;;;;;;;;;;143730;649;46011;-54
2021/09/18 07:20:39;;;;;;;21.75;6.65;;;;;;;;;;143725;600;47020;-54
2021/09/18 07:23:06;;;;;;;16.70;5.93;;;;;;;;;;143728;684;46012;-54
2021/09/18 07:25:33;;;;;;;18.92;6.78;;;;;;;;;;143728;564;46012;-54
2021/09/18 07:28:00;;;;;;;20.52;6.62;;;;;;;;;;143730;589;46010;-54
2021/09/18 07:30:27;;;;;;;17.02;6.28;;;;;;;;;;143726;658;46028;-54
2021/09/18 07:32:54;;;;;;;16.90;6.15;;;;;;;;;;143728;572;46012;-54
2021/09/18 07:35:22;;;;;;;17.12;6.85;;;;;;;;;;143730;564;45021;-54
2021/09/18 07:37:49;;;;;;;27.02;6.25;;;;;;;;;;143732;644;45026;-54
2021/09/18 07:40:16;;;;;;;19.42;6.93;;;;;;;;;;143725;629;46022;-54
2021/09/18 07:42:43;;;;;;;22.00;6.32;;;;;;;;;;143727;632;46012;-54
2021/09/18 07:45:11;;;;;;;15.45;5.70;;;;;;;;;;143730;564;45020;-54
2021/09/18 07:47:39;;;;;;;22.75;5.80;;;;;;;;;;143731;636;46021;-55
2021/09/18 07:50:07;;;;;;;17.02;7.07;;;;;;;;;;143728;569;46020;-55
2021/09/18 07:52:34;;;;;;;20.05;6.25;;;;;;;;;;143727;598;46012;-54
2021/09/18 07:55:01;;;;;;;16.52;6.62;;;;;;;;;;143729;564;45021;-55
2021/09/18 07:57:28;;;;;;;20.48;6.62;;;;;;;;;;143731;648;46010;-55
2021/09/18 07:59:55;;;;;;;19.58;6.12;;;;;;;;;;143726;582;46020;-54
2021/09/18 08:02:22;;;;;;;24.05;6.28;;;;;;;;;;143726;566;46013;-55
2021/09/18 08:04:50;;;;;;;14.35;6.43;;;;;;;;;;143728;628;45913;-54
2021/09/18 08:07:20;;;;;;;21.08;7.22;;;;;;;;;;143732;610;45029;-54
2021/09/18 08:09:53;;;;;;;16.77;5.87;;;;;;;;;;143725;609;46022;-54
2021/09/18 08:12:20;;;;;;;15.40;6.18;;;;;;;;;;143727;634;46012;-54
2021/09/18 08:14:47;;;;;;;21.08;6.03;;;;;;;;;;143728;564;46018;-54
2021/09/18 08:17:14;;;;;;;15.93;5.85;;;;;;;;;;143731;569;46010;-54
2021/09/18 08:19:41;;;;;;;20.80;6.35;;;;;;;;;;143726;586;46020;-54
2021/09/18 08:22:08;;;;;;;20.23;6.12;;;;;;;;;;143732;590;46012;-54
2021/09/18 08:24:35;;;;;;;16.98;6.20;;;;;;;;;;143729;614;45028;-55
2021/09/18 08:27:02;;;;;;;17.17;6.55;;;;;;;;;;143731;581;46021;-54
2021/09/18 08:29:29;;;;;;;19.00;6.03;;;;;;;;;;143727;609;46020;-55
2021/09/18 08:31:56;;;;;;;16.55;5.87;;;;;;;;;;143727;576;46013;-54
2021/09/18 08:34:23;;;;;;;18.35;6.37;;;;;;;;;;143730;567;45021;-54
2021/09/18 08:36:51;;;;;;;26.50;6.87;;;;;;;;;;143729;591;46010;-54
2021/09/18 08:39:17;;;;;;;18.15;6.32;;;;;;;;;;143725;569;46022;-55
2021/09/18 08:41:47;;;;;;;17.20;6.35;;;;;;;;;;143728;575;46012;-54
2021/09/18 08:44:17;;;;;;;17.33;6.07;;;;;;;;;;143729;585;45020;-54
2021/09/18 08:46:44;;;;;;;20.17;6.10;;;;;;;;;;143732;586;45020;-54
2021/09/18 08:49:12;;;;;;;30.48;6.43;;;;;;;;;;143728;584;46020;-54
2021/09/18 08:51:44;;;;;;;20.58;6.62;;;;;;;;;;143728;577;46012;-54
2021/09/18 08:54:11;;;;;;;25.20;6.05;;;;;;;;;;143730;599;45020;-55
2021/09/18 08:56:38;;;;;;;21.25;6.55;;;;;;;;;;143731;578;46021;-55
2021/09/18 08:59:05;;;;;;;24.08;6.47;;;;;;;;;;143726;582;46020;-55
2021/09/18 09:01:33;;;;;;;23.27;6.72;;;;;;;;;;143726;608;46012;-55
2021/09/18 09:04:05;;;;;;;24.42;6.40;;;;;;;;;;143728;633;45021;-55
2021/09/18 09:06:51;;;;;;;11.98;5.85;;;;;;;;;;143730;600;46020;-55
2021/09/18 09:09:18;;;;;;;16.75;6.05;;;;;;;;;;143725;576;46022;-55
2021/09/18 09:11:53;;;;;;;22.37;5.75;;;;;;;;;;143729;586;46012;-54
2021/09/18 09:14:20;;;;;;;22.58;6.05;;;;;;;;;;143729;597;45020;-54
2021/09/18 09:17:06;;;;;;;21.02;6.78;;;;;;;;;;143732;589;46020;-54
2021/09/18 09:19:40;;;;;;;18.42;6.10;;;;;;;;;;143726;639;47020;-54
2021/09/18 09:22:07;;;;;;;18.98;6.03;;;;;;;;;;143727;606;46012;-54
2021/09/18 09:24:35;;;;;;;16.60;6.43;;;;;;;;;;143728;573;45021;-54
2021/09/18 09:27:11;;;;;;;17.17;6.53;;;;;;;;;;143731;570;46010;-55
2021/09/18 09:29:53;;;;;;;22.52;6.53;;;;;;;;;;143725;585;46022;-56
2021/09/18 09:32:37;;;;;;;25.98;6.25;;;;;;;;;;143729;608;46013;-56
2021/09/18 09:35:10;;;;;;;18.67;6.43;;;;;;;;;;143730;569;45020;-55
2021/09/18 09:37:37;;;;;;;19.58;6.62;;;;;;;;;;143731;620;46020;-55
2021/09/18 09:40:07;;;;;;;23.10;6.15;;;;;;;;;;143726;570;46021;-56
2021/09/18 09:42:40;;;;;;;30.15;6.75;;;;;;;;;;143725;604;46020;-56
2021/09/18 09:45:25;;;;;;;31.25;6.72;;;;;;;;;;143730;613;45020;-56
2021/09/18 09:48:13;;;;;;;27.67;6.97;;;;;;;;;;143732;576;46011;-56
2021/09/18 09:51:01;;;;;;;29.60;6.95;;;;;;;;;;143725;664;47020;-56
2021/09/18 09:53:32;;;;;;;19.27;5.90;;;;;;;;;;143730;570;46013;-55
2021/09/18 09:56:06;;;;;;;35.60;5.70;;;;;;;;;;143730;622;45021;-55
2021/09/18 09:59:00;;;;;;;34.45;6.00;;;;;;;;;;143733;649;45022;-55
2021/09/18 10:01:28;;;;;;;32.00;6.57;;;;;;;;;;143727;664;46021;-55
2021/09/18 10:03:55;;;;;;;30.37;6.95;;;;;;;;;;143728;592;46012;-55
2021/09/18 10:06:22;;;;;;;21.83;5.93;;;;;;;;;;143730;565;45020;-55
2021/09/18 10:08:51;;;;;;;16.85;5.28;;;;;;;;;;143731;579;46020;-55
2021/09/18 10:11:21;;;;;;;18.70;5.50;;;;;;;;;;143728;645;46020;-56
2021/09/18 10:13:49;;;;;;;24.48;5.35;;;;;;;;;;143726;586;46012;-55
2021/09/18 10:16:17;;;;;;;25.23;6.20;;;;;;;;;;143728;607;45021;-56
2021/09/18 10:18:45;;;;;;;19.45;5.47;;;;;;;;;;143730;603;45032;-56
2021/09/18 10:23:58;;;;;;;16.20;5.45;;;;;;;;;;143730;581;45914;-55
2021/09/18 10:26:25;;;;;;;21.87;4.78;;;;;;;;;;143729;572;45021;-55
2021/09/18 10:28:52;;;;;;;17.77;5.37;;;;;;;;;;143733;578;45020;-55
2021/09/18 10:31:21;;;;;;;12.13;4.95;;;;;;;;;;143727;593;46021;-55
2021/09/18 10:33:53;;;;;;;17.77;4.62;;;;;;;;;;143727;570;46012;-56
2021/09/18 10:36:41;;;;;;;17.83;5.15;;;;;;;;;;143730;576;45020;-55
2021/09/18 10:39:16;;;;;;;17.12;4.65;;;;;;;;;;143731;645;46010;-55
2021/09/18 10:41:57;;;;;;;17.40;4.72;;;;;;;;;;143728;654;46020;-55
2021/09/18 10:44:46;;;;;;;23.30;5.22;;;;;;;;;;143726;629;46020;-56
2021/09/18 10:47:41;;;;;;;23.95;4.35;;;;;;;;;;143730;587;45021;-56
2021/09/18 10:50:37;;;;;;;20.77;5.00;;;;;;;;;;143731;653;46020;-56
2021/09/18 10:53:11;;;;;;;23.65;5.50;;;;;;;;;;143726;643;46024;-55
2021/09/18 10:56:03;;;;;;;19.83;5.25;;;;;;;;;;143729;577;46012;-57
2021/09/18 10:58:32;;;;;;;25.27;5.40;;;;;;;;;;143729;582;45020;-55
2021/09/18 11:01:00;;;;;;;17.08;4.62;;;;;;;;;;143732;644;46020;-55
2021/09/18 11:03:36;;;;;;;21.62;4.45;;;;;;;;;;143727;622;46020;-55
2021/09/18 11:06:03;;;;;;;25.45;5.30;;;;;;;;;;143726;629;46012;-56
2021/09/18 11:08:36;;;;;;;18.50;5.07;;;;;;;;;;143731;565;45021;-56
2021/09/18 11:11:12;;;;;;;25.15;5.55;;;;;;;;;;143732;639;46020;-55
2021/09/18 11:13:43;;;;;;;24.87;6.07;;;;;;;;;;143728;564;46020;-55
2021/09/18 11:16:27;;;;;;;16.90;4.95;;;;;;;;;;143726;569;46013;-55
2021/09/18 11:19:05;;;;;;;19.45;4.32;;;;;;;;;;143731;607;45020;-56
2021/09/18 11:21:37;;;;;;;15.80;4.60;;;;;;;;;;143734;643;45028;-55
2021/09/18 11:24:26;;;;;;;17.23;4.62;;;;;;;;;;143727;565;46022;-55
2021/09/18 11:26:54;;;;;;;19.10;4.87;;;;;;;;;;143728;597;46012;-55
2021/09/18 11:29:33;;;;;;;15.35;4.80;;;;;;;;;;143731;591;45020;-55
2021/09/18 11:32:14;;;;;;;17.98;4.68;;;;;;;;;;143733;602;46021;-55
2021/09/18 11:34:47;;;;;;;13.85;4.87;;;;;;;;;;143726;606;46022;-55
2021/09/18 11:37:25;;;;;;;10.27;4.33;;;;;;;;;;143728;599;46012;-55
2021/09/18 11:40:03;;;;;;;20.12;5.68;;;;;;;;;;143729;570;45021;-56
2021/09/18 11:42:34;;;;;;;16.98;4.00;;;;;;;;;;143734;630;45020;-55
2021/09/18 11:45:14;;;;;;;15.38;4.60;;;;;;;;;;143727;642;46022;-55
2021/09/18 11:47:45;;;;;;;11.18;3.95;;;;;;;;;;143727;601;46012;-55
2021/09/18 11:50:24;;;;;;;14.93;4.20;;;;;;;;;;143731;607;45020;-55
2021/09/18 11:52:52;;;;;;;24.20;4.93;;;;;;;;;;143732;580;47020;-55
2021/09/18 11:55:31;;;;;;;13.07;4.68;;;;;;;;;;143726;608;47023;-55
2021/09/18 11:58:34;;;;;;;15.85;3.97;;;;;;;;;;143729;578;46012;-55
2021/09/18 12:01:10;;;;;;;18.05;5.28;;;;;;;;;;143734;608;45022;-55
2021/09/18 12:03:46;;;;;;;18.55;4.80;;;;;;;;;;143733;590;46020;-55
2021/09/18 12:06:19;;;;;;;18.92;4.40;;;;;;;;;;143730;586;46020;-55
2021/09/18 12:08:47;;;;;;;17.98;4.20;;;;;;;;;;143727;632;46013;-55
2021/09/18 12:11:17;;;;;;;24.02;5.65;;;;;;;;;;143729;594;45020;-55
2021/09/18 12:13:53;;;;;;;19.37;5.18;;;;;;;;;;143734;573;45023;-55
2021/09/18 12:16:23;;;;;;;20.60;4.95;;;;;;;;;;143730;582;46021;-55
2021/09/18 12:19:00;;;;;;;20.35;4.93;;;;;;;;;;143729;576;46012;-55
2021/09/18 12:21:33;;;;;;;21.62;4.82;;;;;;;;;;143732;598;45020;-54
2021/09/18 12:24:06;;;;;;;20.70;5.15;;;;;;;;;;143731;577;46021;-55
2021/09/18 12:26:38;;;;;;;14.70;4.82;;;;;;;;;;143726;575;47020;-54
2021/09/18 12:29:13;;;;;;;17.63;4.50;;;;;;;;;;143729;564;46012;-55
2021/09/18 12:31:42;;;;;;;14.38;4.90;;;;;;;;;;143732;650;45021;-55
2021/09/18 12:34:12;;;;;;;17.75;5.18;;;;;;;;;;143734;576;45020;-55
2021/09/18 12:36:39;;;;;;;14.13;4.28;;;;;;;;;;143729;589;46020;-55
2021/09/18 12:39:07;;;;;;;17.35;5.15;;;;;;;;;;143729;602;46012;-55
2021/09/18 12:41:37;;;;;;;22.30;4.65;;;;;;;;;;143732;578;45020;-55
2021/09/18 12:44:21;;;;;;;13.70;4.68;;;;;;;;;;143734;588;45020;-55
2021/09/18 12:46:51;;;;;;;25.37;5.90;;;;;;;;;;143727;634;46023;-55
2021/09/18 12:49:19;;;;;;;18.77;4.20;;;;;;;;;;143729;619;46012;-55
2021/09/18 12:51:57;;;;;;;17.77;4.65;;;;;;;;;;143732;580;45021;-55
2021/09/18 12:54:24;;;;;;;16.08;5.22;;;;;;;;;;143731;658;47021;-55
2021/09/18 12:56:51;;;;;;;14.52;5.05;;;;;;;;;;143728;579;46020;-55
2021/09/18 12:59:23;;;;;;;15.20;4.30;;;;;;;;;;143729;578;46013;-54
2021/09/18 13:01:57;;;;;;;16.15;4.43;;;;;;;;;;143731;573;45021;-54
2021/09/18 13:04:30;;;;;;;16.33;4.37;;;;;;;;;;143734;639;45021;-55
2021/09/18 13:07:02;;;;;;;21.87;5.67;;;;;;;;;;143730;632;46021;-55
2021/09/18 13:09:34;;;;;;;23.42;4.93;;;;;;;;;;143729;605;46012;-55
2021/09/18 13:12:08;;;;;;;16.12;4.32;;;;;;;;;;143730;565;45020;-55
2021/09/18 13:14:40;;;;;;;15.45;4.75;;;;;;;;;;143732;593;46020;-55
2021/09/18 13:17:16;;;;;;;17.95;5.18;;;;;;;;;;143728;627;46021;-56
2021/09/18 13:20:00;;;;;;;14.25;4.45;;;;;;;;;;143729;576;46012;-56
2021/09/18 13:22:34;;;;;;;19.73;5.32;;;;;;;;;;143731;728;45021;-55
2021/09/18 13:25:01;;;;;;;;;;;;;;;;;;143737;981;46020;-55
2021/09/18 13:27:29;;;;;;;14.48;4.57;;;;;;;;;;143732;565;46020;-55
2021/09/18 13:29:59;;;;;;;21.50;5.20;;;;;;;;;;143729;577;46013;-55
2021/09/18 13:32:27;;;;;;;20.40;4.68;;;;;;;;;;143732;627;45021;-55
2021/09/18 13:34:54;;;;;;;18.15;4.78;;;;;;;;;;143734;565;45027;-55
2021/09/18 13:37:22;;;;;;;15.52;4.68;;;;;;;;;;143729;588;46021;-55
2021/09/18 13:39:49;;;;;;;16.23;4.28;;;;;;;;;;143729;630;46012;-55
2021/09/18 13:42:21;;;;;;;15.77;4.40;;;;;;;;;;143731;577;45020;-55
2021/09/18 13:44:49;;;;;;;16.77;4.75;;;;;;;;;;143732;636;46020;-55
2021/09/18 13:47:16;;;;;;;16.00;4.47;;;;;;;;;;143729;632;46020;-55
2021/09/18 13:49:44;;;;;;;23.12;5.43;;;;;;;;;;143729;589;46012;-55
2021/09/18 13:52:11;;;;;;;19.50;4.55;;;;;;;;;;143732;566;45021;-55
2021/09/18 13:54:38;;;;;;;18.15;4.80;;;;;;;;;;143732;624;46012;-55
2021/09/18 13:57:05;;;;;;;12.48;5.20;;;;;;;;;;143730;577;46020;-55
2021/09/18 13:59:32;;;;;;;19.83;5.22;;;;;;;;;;143729;593;46012;-54
2021/09/18 14:02:00;;;;;;;14.87;4.85;;;;;;;;;;143731;591;45021;-55
2021/09/18 14:04:27;;;;;;;17.62;4.45;;;;;;;;;;143734;583;45031;-55
2021/09/18 14:06:54;;;;;;;12.52;4.97;;;;;;;;;;143728;587;46021;-55
2021/09/18 14:09:21;;;;;;;12.85;5.20;;;;;;;;;;143729;631;46012;-55
2021/09/18 14:11:47;;;;;;;13.90;4.62;;;;;;;;;;143732;570;45020;-55
2021/09/18 14:14:15;;;;;;;14.68;4.85;;;;;;;;;;143734;570;45021;-54
2021/09/18 14:16:43;;;;;;;23.23;5.28;;;;;;;;;;143728;779;46020;-55
2021/09/18 14:19:11;;;;;;;16.77;5.05;;;;;;;;;;143728;564;46012;-55
2021/09/18 14:21:38;;;;;;;14.43;4.75;;;;;;;;;;143730;593;45910;-55
2021/09/18 14:24:05;;;;;;;19.48;5.07;;;;;;;;;;143732;567;46012;-55
2021/09/18 14:26:32;;;;;;;16.30;4.70;;;;;;;;;;143729;620;46020;-55
2021/09/18 14:28:59;;;;;;;13.45;4.57;;;;;;;;;;143730;618;46013;-55
2021/09/18 14:31:27;;;;;;;12.48;4.68;;;;;;;;;;143731;633;45021;-55
2021/09/18 14:33:56;;;;;;;11.48;3.87;;;;;;;;;;143732;640;46020;-55
2021/09/18 14:36:23;;;;;;;19.65;4.70;;;;;;;;;;143730;598;46021;-55
2021/09/18 14:38:51;;;;;;;16.83;5.12;;;;;;;;;;143729;580;46012;-55
2021/09/18 14:41:18;;;;;;;14.48;4.35;;;;;;;;;;143729;564;45022;-55
2021/09/18 14:43:45;;;;;;;14.30;4.43;;;;;;;;;;143734;600;45020;-55